Bookmark and Share
Track history (hours):
 

Magnolia

More information available from US FCC via Universal Licensing System and Coast Guard Vessel Documentation Center.

Last reported at 2013-Jun-29 01:33 UTC. Time now 2014-Apr-20 11:52 UTC.
Position N 32°23' W 090°55'.
Warning: this ship's position is months out of date.

Length 47 m; draft 3 m.

Type: Tow > 200 m length. MMSI: 366936980.

NotesDate/timePositionNaut miles runAvg speedWind from/ knotsBaromVisibWave heightAir tempDewpointWater temp
2013-Jun-29 01:33N 32°23' W 090°55'1 1.5
2013-Jun-29 00:33N 32°23' W 090°53'0 0.1
2013-Jun-28 23:33N 32°23' W 090°53'2 1.6
2013-Jun-28 22:34N 32°23' W 090°55'0 0.1
2013-Jun-28 21:33N 32°23' W 090°55'0 0.0
2013-Jun-28 20:33N 32°23' W 090°55'0 0.0
2013-Jun-28 19:34N 32°23' W 090°55'0 0.0
2013-Jun-28 18:34N 32°23' W 090°55'0 0.0
2013-Jun-28 17:34N 32°23' W 090°55'0 0.0
2013-Jun-28 16:34N 32°23' W 090°55'0 0.0
2013-Jun-28 15:33N 32°23' W 090°55'0 0.0
2013-Jun-28 14:33N 32°23' W 090°55'0 0.0
2013-Jun-28 13:33N 32°23' W 090°55'0 0.0
2013-Jun-28 12:34N 32°23' W 090°55'0 0.0
2013-Jun-28 11:34N 32°23' W 090°55'0 0.0
2013-Jun-28 10:34N 32°23' W 090°55'0 0.0
2013-Jun-28 09:34N 32°23' W 090°55'0 0.0
2013-Jun-28 08:33N 32°23' W 090°55'0 0.0
2013-Jun-28 07:33N 32°23' W 090°55'0 0.0
2013-Jun-28 06:34N 32°23' W 090°55'1 1.5
2013-Jun-28 05:33N 32°22' W 090°53'1 1.1
2013-Jun-28 04:34N 32°21' W 090°53'1 0.8
2013-Jun-28 03:34N 32°21' W 090°54'4 3.9
2013-Jun-28 02:34N 32°17' W 090°56'4 4.4
2013-Jun-28 01:33N 32°14' W 090°59'  
2013-Jun-23 20:14N 32°08' W 091°06'6 8.3
2013-Jun-23 19:33N 32°10' W 091°00'10 9.7
2013-Jun-23 18:33N 32°18' W 090°55'0 0.1
2013-Jun-23 17:33N 32°18' W 090°55'2 1.6
2013-Jun-23 16:33N 32°19' W 090°54'2 1.8
2013-Jun-23 15:33N 32°21' W 090°53'2 1.9
2013-Jun-23 14:33N 32°23' W 090°53'0 0.1
2013-Jun-23 13:33N 32°23' W 090°53'1 0.9
2013-Jun-23 12:33N 32°23' W 090°54'0 0.1
2013-Jun-23 11:33N 32°23' W 090°54'0 0.0
2013-Jun-23 10:33N 32°23' W 090°54'0 0.0
2013-Jun-23 09:33N 32°23' W 090°54'0 0.0
2013-Jun-23 08:33N 32°23' W 090°54'0 0.0
2013-Jun-23 07:33N 32°23' W 090°54'0 0.0
2013-Jun-23 06:33N 32°23' W 090°54'0 0.0
2013-Jun-23 05:33N 32°23' W 090°54'0 0.0
2013-Jun-23 04:33N 32°23' W 090°54'0 0.0
2013-Jun-23 03:33N 32°23' W 090°54'0 0.0
2013-Jun-23 02:33N 32°23' W 090°54'0 0.0
2013-Jun-23 01:33N 32°23' W 090°54'0 0.0
2013-Jun-23 00:33N 32°23' W 090°54'0 0.1
2013-Jun-22 23:33N 32°23' W 090°54'0 0.0
2013-Jun-22 22:33N 32°23' W 090°54'0 0.0
2013-Jun-22 21:33N 32°23' W 090°54'0 0.5
2013-Jun-22 20:33N 32°23' W 090°54'3 2.9
2013-Jun-22 19:33N 32°20' W 090°54'6 5.8
2013-Jun-22 18:33N 32°16' W 090°58'  

Dump ship's entire track history

sailing weather and tide predictions

Magnolia — WDB7135 — position and weather